Ahmeek, Michigan
Current Conditions -  °F | °C
As of 2:53 PM on Tuesday 21 Oct 2014 (Local Time) from KCMX Reporting Station
Clear Clear  
Wind Chill: 43°   Ceiling: Unl
Heat Index: 45°   Visibility: 10mi
Dew Point: 29°   Wind: 5mph
Humidity: 53%   Direction: 90°E
Pressure: 30.26"   Gusts: NA
Location:  47.3°N, 88.4°W
Report Text: KCMX 211853Z AUTO 09004KT 10SM CLR 07/M02 A3026 RMK AO2 SLP256 T00721017
Loading
Personal Weather Stations






























Interactive Weather Map
Tropical Storm Tracking
New forecast layout! Learn more

10-Day Weather Forecast

Advertisements
Track Severe Weather on mobile